Time;durP1;ratioP1;P1;durP2;ratioP2;P2;SDS_P1;SDS_P2;PMS_P1;PMS_P2;Temp;Humidity;BMP_temperature;BMP_pressure;BME280_temperature;BME280_humidity;BME280_pressure;Samples;Min_cycle;Max_cycle;Signal;HPM_P1;HPM_P2
2023/08/16 00:00:45;;;;;;;0.00;0.00;;;;;;;18.07;100.00;100865.06;4995926;28;20607;-82
2023/08/16 00:03:10;;;;;;;0.00;0.00;;;;;;;18.05;100.00;100861.84;4995957;28;20262;-83
2023/08/16 00:05:36;;;;;;;0.00;0.00;;;;;;;18.00;100.00;100862.13;4993777;28;20197;-84
2023/08/16 00:08:02;;;;;;;0.53;0.53;;;;;;;17.90;100.00;100860.63;4994159;28;20239;-83
2023/08/16 00:10:27;;;;;;;0.00;0.00;;;;;;;17.80;100.00;100856.44;5010353;28;20570;-83
2023/08/16 00:12:53;;;;;;;1.33;1.23;;;;;;;17.74;100.00;100860.56;4993712;28;20192;-83
2023/08/16 00:15:18;;;;;;;12.37;2.50;;;;;;;17.70;100.00;100862.44;4994519;28;20209;-83
2023/08/16 00:17:43;;;;;;;4.93;4.47;;;;;;;17.69;100.00;100862.78;4993841;28;20300;-82
2023/08/16 00:20:10;;;;;;;5.97;3.37;;;;;;;17.70;100.00;100872.69;5009611;28;20615;-83
2023/08/16 00:22:36;;;;;;;4.63;2.20;;;;;;;17.71;100.00;100877.06;4987003;28;20188;-82
2023/08/16 00:25:01;;;;;;;5.27;4.20;;;;;;;17.70;100.00;100875.44;4993976;28;20716;-82
2023/08/16 00:27:27;;;;;;;2.40;2.20;;;;;;;17.71;100.00;100869.56;4994274;28;20177;-83
2023/08/16 00:29:52;;;;;;;4.23;3.83;;;;;;;17.72;100.00;100876.72;4994920;28;20196;-82
2023/08/16 00:32:17;;;;;;;3.43;3.23;;;;;;;17.74;100.00;100866.09;4995230;28;20185;-83
2023/08/16 00:34:43;;;;;;;6.70;3.20;;;;;;;17.78;100.00;100869.78;4994306;28;20204;-82
2023/08/16 00:37:08;;;;;;;4.47;4.07;;;;;;;17.76;100.00;100863.78;4996507;28;20272;-82
2023/08/16 00:39:33;;;;;;;2.70;2.50;;;;;;;17.77;100.00;100861.81;4993880;28;20268;-83
2023/08/16 00:41:59;;;;;;;1.40;1.30;;;;;;;17.78;100.00;100874.50;4993386;28;20179;-83
2023/08/16 00:44:24;;;;;;;2.70;2.57;;;;;;;17.81;100.00;100871.06;4992675;28;20669;-83
2023/08/16 00:46:50;;;;;;;2.00;1.90;;;;;;;17.83;100.00;100872.31;4993134;28;20201;-83
2023/08/16 00:49:16;;;;;;;2.67;2.57;;;;;;;17.76;100.00;100866.56;4992782;28;20606;-82
2023/08/16 00:51:42;;;;;;;6.73;2.87;;;;;;;17.82;100.00;100859.66;4993780;28;20616;-83
2023/08/16 00:54:07;;;;;;;10.67;2.50;;;;;;;17.84;100.00;100873.91;4993817;28;20252;-83
2023/08/16 00:56:34;;;;;;;2.40;2.20;;;;;;;17.83;100.00;100868.75;4993339;28;20181;-82
2023/08/16 00:59:00;;;;;;;3.23;3.07;;;;;;;17.85;100.00;100869.19;4992121;28;20208;-84
2023/08/16 01:01:26;;;;;;;2.57;2.37;;;;;;;17.87;100.00;100860.53;4992160;28;20661;-83
2023/08/16 01:03:51;;;;;;;0.60;0.60;;;;;;;17.89;100.00;100864.56;4993479;28;20232;-83
2023/08/16 01:06:17;;;;;;;1.53;1.43;;;;;;;17.96;100.00;100866.75;4991907;28;20561;-82
2023/08/16 01:08:42;;;;;;;0.83;0.83;;;;;;;18.05;100.00;100864.63;4993728;28;20538;-81
2023/08/16 01:11:27;;;;;;;2.07;1.97;;;;;;;18.01;100.00;100858.19;4992056;28;20177;-83
2023/08/16 01:14:24;;;;;;;8.80;2.13;;;;;;;17.95;100.00;100863.19;4993509;28;20611;-83
2023/08/16 01:16:51;;;;;;;9.70;2.23;;;;;;;17.92;100.00;100866.63;4993159;28;20269;-82
2023/08/16 01:19:27;;;;;;;1.63;1.53;;;;;;;17.97;100.00;100871.13;4993284;28;20205;-83
2023/08/16 01:22:01;;;;;;;2.07;1.57;;;;;;;17.95;100.00;100870.66;4993428;28;20180;-82
2023/08/16 01:24:36;;;;;;;0.63;0.63;;;;;;;17.95;100.00;100862.38;4992199;28;20581;-82
2023/08/16 01:27:03;;;;;;;0.13;0.13;;;;;;;18.04;100.00;100868.53;4993286;28;20181;-83
2023/08/16 01:29:29;;;;;;;2.13;2.03;;;;;;;17.97;100.00;100865.59;4992883;28;20558;-82
2023/08/16 01:31:55;;;;;;;2.40;1.67;;;;;;;17.98;100.00;100869.97;4993173;28;20205;-82
2023/08/16 01:34:20;;;;;;;4.80;3.07;;;;;;;17.96;100.00;100869.50;4992114;28;20200;-82
2023/08/16 01:36:46;;;;;;;8.37;3.33;;;;;;;17.93;100.00;100871.00;4992819;28;20683;-83
2023/08/16 01:39:11;;;;;;;6.03;2.87;;;;;;;17.93;100.00;100870.19;4992864;28;20209;-83
2023/08/16 01:41:42;;;;;;;1.60;1.50;;;;;;;17.91;100.00;100869.75;4992567;28;20223;-83
2023/08/16 01:44:09;;;;;;;1.57;1.47;;;;;;;17.93;100.00;100884.00;4990936;28;20200;-81
2023/08/16 01:46:37;;;;;;;2.50;2.30;;;;;;;17.84;100.00;100873.13;4990567;28;20193;-84
2023/08/16 01:49:03;;;;;;;1.53;1.43;;;;;;;17.83;100.00;100883.38;4989934;28;20173;-82
2023/08/16 01:51:29;;;;;;;1.57;1.47;;;;;;;17.80;100.00;100881.31;4992425;28;20220;-83
2023/08/16 01:53:55;;;;;;;1.03;1.03;;;;;;;17.81;100.00;100874.63;5007176;28;20299;-83
2023/08/16 01:56:21;;;;;;;2.20;2.10;;;;;;;17.79;100.00;100882.47;4990144;28;20335;-82
2023/08/16 01:58:47;;;;;;;2.23;2.03;;;;;;;17.76;100.00;100874.84;4990625;28;20201;-82
2023/08/16 02:01:14;;;;;;;1.40;1.40;;;;;;;17.67;100.00;100879.69;4990389;28;20181;-83
2023/08/16 02:03:40;;;;;;;0.70;0.67;;;;;;;17.64;100.00;100888.66;4991923;28;20188;-83
2023/08/16 02:06:05;;;;;;;2.90;2.73;;;;;;;17.61;100.00;100892.13;4991585;28;20185;-82
2023/08/16 02:08:30;;;;;;;1.67;1.57;;;;;;;17.50;100.00;100891.81;4993683;28;20173;-82
2023/08/16 02:10:56;;;;;;;0.10;0.10;;;;;;;17.52;100.00;100888.69;4993906;28;20208;-82
2023/08/16 02:13:21;;;;;;;0.00;0.00;;;;;;;17.54;100.00;100883.63;4993441;28;20181;-82
2023/08/16 02:15:46;;;;;;;0.93;0.73;;;;;;;17.55;100.00;100888.81;4993238;28;20197;-83
2023/08/16 02:18:13;;;;;;;0.67;0.67;;;;;;;17.55;100.00;100885.22;4993458;28;20750;-82
2023/08/16 02:20:39;;;;;;;2.07;2.03;;;;;;;17.48;100.00;100887.75;4992290;28;20185;-82
2023/08/16 02:23:05;;;;;;;1.23;0.87;;;;;;;17.45;100.00;100883.75;4993776;28;20200;-82
2023/08/16 02:25:31;;;;;;;0.67;0.67;;;;;;;17.39;100.00;100887.09;4992009;28;20216;-83
2023/08/16 02:27:56;;;;;;;1.70;1.63;;;;;;;17.32;100.00;100892.38;4992713;28;20784;-82
2023/08/16 02:30:22;;;;;;;2.40;2.30;;;;;;;17.36;100.00;100898.81;4993443;28;20177;-82
2023/08/16 02:32:47;;;;;;;0.60;0.60;;;;;;;17.37;100.00;100892.16;4992077;28;20185;-83
2023/08/16 02:35:13;;;;;;;2.37;2.27;;;;;;;17.35;100.00;100897.19;4990968;28;20196;-82
2023/08/16 02:37:38;;;;;;;1.90;1.80;;;;;;;17.38;100.00;100902.06;4990078;28;20255;-82
2023/08/16 02:40:04;;;;;;;1.53;1.50;;;;;;;17.27;100.00;100904.47;4991115;28;20258;-82
2023/08/16 02:42:29;;;;;;;1.83;1.73;;;;;;;17.22;100.00;100894.47;4991333;28;20695;-82
2023/08/16 02:44:55;;;;;;;1.23;1.23;;;;;;;17.27;100.00;100901.72;4990630;28;20762;-82
2023/08/16 02:47:20;;;;;;;1.73;1.67;;;;;;;17.27;100.00;100898.94;4989576;28;20622;-82
2023/08/16 02:49:46;;;;;;;1.70;1.60;;;;;;;17.26;100.00;100900.09;4989800;28;20189;-83
2023/08/16 02:52:12;;;;;;;3.40;1.77;;;;;;;17.19;100.00;100895.13;4991340;28;20205;-82
2023/08/16 02:54:37;;;;;;;1.20;1.20;;;;;;;17.19;100.00;100894.34;4989361;28;20473;-81
2023/08/16 02:57:03;;;;;;;0.00;0.00;;;;;;;17.33;100.00;100897.56;4991152;28;20185;-82
2023/08/16 02:59:47;;;;;;;0.07;0.07;;;;;;;17.47;100.00;100894.44;4991148;28;20203;-82
2023/08/16 03:02:13;;;;;;;7.80;1.50;;;;;;;17.32;100.00;100897.91;4993124;28;20188;-82
2023/08/16 03:04:41;;;;;;;0.00;0.00;;;;;;;17.43;100.00;100901.81;4993991;28;20768;-82
2023/08/16 03:07:08;;;;;;;0.00;0.00;;;;;;;17.51;100.00;100901.72;4994592;28;20247;-83
2023/08/16 03:09:34;;;;;;;0.10;0.10;;;;;;;17.57;100.00;100902.25;4994436;28;20193;-82
2023/08/16 03:11:59;;;;;;;0.00;0.00;;;;;;;17.60;100.00;100896.03;4993084;28;20246;-82
2023/08/16 03:14:24;;;;;;;0.67;0.67;;;;;;;17.45;100.00;100899.50;4993469;28;20678;-83
2023/08/16 03:16:50;;;;;;;0.60;0.60;;;;;;;17.43;100.00;100901.81;4994523;28;20280;-82
2023/08/16 03:19:15;;;;;;;0.67;0.67;;;;;;;17.42;100.00;100901.00;4992723;28;20739;-82
2023/08/16 03:21:41;;;;;;;0.47;0.47;;;;;;;17.41;100.00;100899.41;4994423;28;20615;-84
2023/08/16 03:24:06;;;;;;;0.83;0.83;;;;;;;17.33;100.00;100902.28;4994122;28;20287;-82
2023/08/16 03:26:32;;;;;;;0.93;0.90;;;;;;;17.34;100.00;100910.22;4994131;28;20595;-82
2023/08/16 03:28:57;;;;;;;1.60;1.60;;;;;;;17.31;100.00;100904.56;4994170;28;20223;-82
2023/08/16 03:31:23;;;;;;;0.03;0.03;;;;;;;17.23;100.00;100909.88;4994300;28;20561;-82
2023/08/16 03:33:48;;;;;;;2.23;1.10;;;;;;;17.19;100.00;100911.69;4992584;28;20216;-82
2023/08/16 03:36:14;;;;;;;1.83;1.63;;;;;;;17.28;100.00;100919.09;4992414;28;20538;-82
2023/08/16 03:38:41;;;;;;;0.90;0.90;;;;;;;17.27;100.00;100920.25;4994173;28;20698;-81
2023/08/16 03:41:07;;;;;;;0.83;0.83;;;;;;;17.27;100.00;100925.75;4994332;28;20193;-82
2023/08/16 03:43:36;;;;;;;0.47;0.47;;;;;;;17.23;100.00;100920.13;4992404;28;20199;-82
2023/08/16 03:46:02;;;;;;;1.17;1.07;;;;;;;17.22;100.00;100916.56;4991958;28;20633;-82
2023/08/16 03:48:27;;;;;;;1.37;1.37;;;;;;;17.16;100.00;100922.63;4993951;28;20177;-82
2023/08/16 03:50:53;;;;;;;1.63;1.47;;;;;;;17.16;100.00;100930.91;4994016;28;20538;-81
2023/08/16 03:53:18;;;;;;;1.13;1.13;;;;;;;17.17;100.00;100932.53;4992349;28;20185;-81
2023/08/16 03:55:43;;;;;;;1.97;1.87;;;;;;;17.19;100.00;100928.28;4991834;28;20208;-82
2023/08/16 03:58:09;;;;;;;1.20;1.10;;;;;;;17.17;100.00;100929.78;4992405;28;20200;-82
2023/08/16 04:00:34;;;;;;;1.90;1.80;;;;;;;17.11;100.00;100929.19;4993733;28;20188;-81
2023/08/16 04:02:59;;;;;;;0.50;0.50;;;;;;;17.12;100.00;100933.56;4993440;28;20717;-82
2023/08/16 04:05:25;;;;;;;2.13;2.00;;;;;;;17.09;100.00;100936.22;4991521;28;20213;-82
2023/08/16 04:07:50;;;;;;;0.70;0.70;;;;;;;17.07;100.00;100947.63;4993731;28;20184;-81
2023/08/16 04:10:15;;;;;;;0.00;0.00;;;;;;;17.09;100.00;100948.06;4993025;28;20188;-82
2023/08/16 04:12:41;;;;;;;0.63;0.63;;;;;;;17.10;100.00;100948.88;4991771;28;20616;-82
2023/08/16 04:15:07;;;;;;;1.07;1.07;;;;;;;17.12;100.00;100952.09;4991636;28;20208;-81
2023/08/16 04:17:33;;;;;;;0.30;0.30;;;;;;;17.11;100.00;100951.28;4991994;28;20212;-82
2023/08/16 04:19:58;;;;;;;0.30;0.30;;;;;;;17.20;100.00;100963.03;4993481;28;20181;-82
2023/08/16 04:22:23;;;;;;;0.23;0.20;;;;;;;17.19;100.00;100971.66;4993437;28;20181;-82
2023/08/16 04:24:49;;;;;;;1.70;0.30;;;;;;;17.18;100.00;100973.59;4992709;28;20681;-82
2023/08/16 04:27:14;;;;;;;1.03;1.03;;;;;;;17.25;100.00;100971.09;4992121;28;20185;-82
2023/08/16 04:29:40;;;;;;;1.33;1.33;;;;;;;17.26;100.00;100966.38;4993315;28;20265;-83
2023/08/16 04:32:05;;;;;;;0.73;0.73;;;;;;;17.25;100.00;100971.09;4993718;28;20184;-82
2023/08/16 04:34:31;;;;;;;0.30;0.30;;;;;;;17.27;100.00;100964.44;4997241;28;20239;-83
2023/08/16 04:36:56;;;;;;;0.83;0.83;;;;;;;17.30;100.00;100975.59;4996815;28;20244;-82
2023/08/16 04:39:22;;;;;;;1.27;1.27;;;;;;;17.23;100.00;100973.41;4995652;28;20757;-82
2023/08/16 04:41:48;;;;;;;0.47;0.47;;;;;;;17.27;100.00;100983.75;4994871;28;20177;-83
2023/08/16 04:44:13;;;;;;;0.20;0.20;;;;;;;17.28;100.00;100979.84;4994768;28;20518;-82
2023/08/16 04:46:38;;;;;;;0.00;0.00;;;;;;;17.30;100.00;100983.06;4993199;28;20201;-82
2023/08/16 04:49:04;;;;;;;0.53;0.30;;;;;;;17.37;100.00;100981.34;4993427;28;20200;-82
2023/08/16 04:51:29;;;;;;;0.03;0.03;;;;;;;17.42;100.00;100983.09;4994666;28;20189;-83
2023/08/16 04:53:54;;;;;;;0.10;0.10;;;;;;;17.41;100.00;100975.94;4994650;28;20204;-84
2023/08/16 04:56:20;;;;;;;0.87;0.87;;;;;;;17.40;100.00;100975.16;4992663;28;20280;-83
2023/08/16 04:58:45;;;;;;;0.47;0.47;;;;;;;17.41;100.00;100973.19;4992981;28;20209;-83
2023/08/16 05:01:10;;;;;;;0.00;0.00;;;;;;;17.48;100.00;100976.16;4994359;28;20205;-84
2023/08/16 05:03:36;;;;;;;0.03;0.03;;;;;;;17.51;100.00;100969.97;4993193;28;20259;-82
2023/08/16 05:06:03;;;;;;;1.20;1.20;;;;;;;17.51;100.00;100975.50;4992778;28;20224;-82
2023/08/16 05:08:29;;;;;;;0.50;0.50;;;;;;;17.44;100.00;100983.53;4994321;28;20181;-82
2023/08/16 05:10:58;;;;;;;0.93;0.93;;;;;;;17.48;100.00;100989.97;4992491;28;20187;-82
2023/08/16 05:13:23;;;;;;;0.97;0.97;;;;;;;17.50;100.00;100993.19;4993702;28;20224;-82
2023/08/16 05:15:49;;;;;;;0.47;0.47;;;;;;;17.65;100.00;100995.31;4992081;28;20216;-82
2023/08/16 05:18:14;;;;;;;0.10;0.10;;;;;;;17.67;100.00;100997.72;4994006;28;20259;-82
2023/08/16 05:20:40;;;;;;;0.00;0.00;;;;;;;17.64;100.00;101001.94;4992884;28;20239;-82
2023/08/16 05:23:05;;;;;;;0.00;0.00;;;;;;;17.72;100.00;101008.56;4993679;28;20192;-82
2023/08/16 05:25:30;;;;;;;0.00;0.00;;;;;;;17.82;100.00;101011.69;4993228;28;20243;-82
2023/08/16 05:27:58;;;;;;;0.20;0.20;;;;;;;17.92;100.00;101020.63;4993517;28;20220;-82
2023/08/16 05:30:30;;;;;;;0.00;0.00;;;;;;;17.61;100.00;101007.38;4994631;28;20185;-82
2023/08/16 05:32:56;;;;;;;0.00;0.00;;;;;;;17.88;100.00;101015.00;4995245;28;20189;-82
2023/08/16 05:35:21;;;;;;;0.00;0.00;;;;;;;17.69;100.00;101010.06;4993517;28;20235;-82
2023/08/16 05:37:48;;;;;;;0.00;0.00;;;;;;;17.84;100.00;101012.13;4996417;28;20239;-83
2023/08/16 05:40:14;;;;;;;0.00;0.00;;;;;;;17.57;100.00;101006.47;5010556;28;20544;-82
2023/08/16 05:42:39;;;;;;;0.00;0.00;;;;;;;17.77;100.00;101016.63;4990693;28;20673;-82
2023/08/16 05:45:05;;;;;;;0.00;0.00;;;;;;;17.67;100.00;101014.31;4992760;28;20292;-82
2023/08/16 05:47:31;;;;;;;0.00;0.00;;;;;;;17.64;100.00;101024.06;4994159;28;20260;-83
2023/08/16 05:49:57;;;;;;;0.00;0.00;;;;;;;17.55;100.00;101023.38;4991593;28;20585;-83
2023/08/16 05:52:23;;;;;;;0.00;0.00;;;;;;;17.71;100.00;101035.41;4992988;28;20185;-83
2023/08/16 05:54:48;;;;;;;0.00;0.00;;;;;;;17.63;100.00;101025.22;4990683;28;20590;-83
2023/08/16 05:57:13;;;;;;;0.00;0.00;;;;;;;17.80;100.00;101036.09;4991287;28;20565;-83
2023/08/16 05:59:40;;;;;;;0.00;0.00;;;;;;;17.96;100.00;101035.41;4992387;28;20188;-83
2023/08/16 06:02:06;;;;;;;0.07;0.07;;;;;;;18.10;100.00;101038.63;4991739;28;20220;-83
2023/08/16 06:04:32;;;;;;;0.00;0.00;;;;;;;18.10;100.00;101024.78;5005470;28;20207;-82
2023/08/16 06:06:57;;;;;;;0.00;0.00;;;;;;;17.95;100.00;101028.25;4991886;28;20570;-83
2023/08/16 06:09:23;;;;;;;0.00;0.00;;;;;;;17.88;100.00;101028.81;4992289;28;20185;-82
2023/08/16 06:11:48;;;;;;;0.00;0.00;;;;;;;17.94;100.00;101023.84;4991287;28;20188;-82
2023/08/16 06:14:13;;;;;;;0.30;0.30;;;;;;;17.89;100.00;101024.91;4992236;28;20259;-82
2023/08/16 06:16:39;;;;;;;0.67;0.67;;;;;;;17.74;100.00;101023.66;4992119;28;20252;-82
2023/08/16 06:19:04;;;;;;;0.00;0.00;;;;;;;17.87;100.00;101035.50;4988698;28;20689;-82
2023/08/16 06:21:29;;;;;;;0.00;0.00;;;;;;;17.82;100.00;101028.25;5007526;28;20185;-82
2023/08/16 06:23:56;;;;;;;0.00;0.00;;;;;;;17.83;100.00;101034.59;4992273;28;20215;-83
2023/08/16 06:26:21;;;;;;;0.00;0.00;;;;;;;18.04;100.00;101040.78;4991505;28;20189;-82
2023/08/16 06:28:47;;;;;;;0.00;0.00;;;;;;;18.19;100.00;101044.00;4992216;28;20184;-82
2023/08/16 06:31:13;;;;;;;0.00;0.00;;;;;;;18.20;100.00;101043.66;4991006;28;20672;-82
2023/08/16 06:33:38;;;;;;;0.10;0.10;;;;;;;18.19;100.00;101033.75;4989485;28;20209;-83
2023/08/16 06:36:04;;;;;;;0.00;0.00;;;;;;;18.27;100.00;101035.59;4996399;28;20217;-82
2023/08/16 06:38:29;;;;;;;0.00;0.00;;;;;;;18.11;100.00;101027.19;4993998;28;20247;-83
2023/08/16 06:40:55;;;;;;;0.00;0.00;;;;;;;18.08;100.00;101025.13;4994112;28;20177;-83
2023/08/16 06:43:20;;;;;;;0.00;0.00;;;;;;;18.05;100.00;101014.75;4994271;28;20185;-82
2023/08/16 06:45:46;;;;;;;0.00;0.00;;;;;;;17.92;100.00;101023.41;4993516;28;20213;-82
2023/08/16 06:48:11;;;;;;;0.20;0.20;;;;;;;17.88;100.00;101025.25;4996226;28;20185;-83
2023/08/16 06:50:37;;;;;;;0.07;0.07;;;;;;;18.09;100.00;101037.00;4994347;28;20188;-83
2023/08/16 06:53:03;;;;;;;0.00;0.00;;;;;;;18.32;100.00;101046.41;4994443;28;20189;-82
2023/08/16 06:55:29;;;;;;;0.00;0.00;;;;;;;18.50;100.00;101051.66;4994506;28;20207;-82
2023/08/16 06:57:54;;;;;;;0.00;0.00;;;;;;;18.51;100.00;101051.31;4993644;28;20680;-82
2023/08/16 07:00:19;;;;;;;0.00;0.00;;;;;;;18.72;100.00;101063.06;4994683;28;20196;-82
2023/08/16 07:02:45;;;;;;;0.00;0.00;;;;;;;18.83;100.00;101057.03;4996366;28;20176;-82
2023/08/16 07:05:13;;;;;;;0.33;0.33;;;;;;;18.75;100.00;101050.47;4995503;28;20209;-82
2023/08/16 07:07:39;;;;;;;0.27;0.27;;;;;;;18.58;100.00;101042.41;4996093;28;20553;-82
2023/08/16 07:10:05;;;;;;;0.00;0.00;;;;;;;18.88;100.00;101062.28;4996161;28;20235;-83
2023/08/16 07:12:31;;;;;;;0.00;0.00;;;;;;;18.73;100.00;101050.81;4995600;28;20181;-82
2023/08/16 07:14:56;;;;;;;0.00;0.00;;;;;;;18.75;100.00;101056.00;4995027;28;20255;-82
2023/08/16 07:17:22;;;;;;;0.00;0.00;;;;;;;18.82;100.00;101067.28;4996053;28;20181;-83
2023/08/16 07:19:48;;;;;;;0.00;0.00;;;;;;;18.68;100.00;101062.16;4997870;28;20185;-82
2023/08/16 07:22:14;;;;;;;0.00;0.00;;;;;;;18.82;100.00;101067.28;4996637;28;20181;-82
2023/08/16 07:24:39;;;;;;;0.00;0.00;;;;;;;19.03;100.00;101072.63;4994879;28;20200;-83
2023/08/16 07:27:05;;;;;;;0.00;0.00;;;;;;;19.20;100.00;101075.06;4994543;28;20181;-83
2023/08/16 07:29:30;;;;;;;0.43;0.43;;;;;;;19.02;100.00;101065.47;4997021;28;20181;-83
2023/08/16 07:31:55;;;;;;;0.00;0.00;;;;;;;18.85;100.00;101058.28;4997340;28;20200;-82
2023/08/16 07:34:20;;;;;;;0.00;0.00;;;;;;;18.85;100.00;101044.44;4996822;28;20348;-83
2023/08/16 07:36:46;;;;;;;0.10;0.10;;;;;;;18.69;100.00;101049.13;4995813;28;20249;-82
2023/08/16 07:39:11;;;;;;;0.17;0.17;;;;;;;18.82;100.00;101053.44;4994552;28;20205;-82
2023/08/16 07:41:36;;;;;;;0.00;0.00;;;;;;;18.98;100.00;101051.53;4994102;28;20185;-82
2023/08/16 07:44:03;;;;;;;0.07;0.07;;;;;;;18.98;100.00;101043.22;4994397;28;20217;-82
2023/08/16 07:46:28;;;;;;;0.43;0.43;;;;;;;18.96;100.00;101044.75;4994570;28;20203;-82
2023/08/16 07:48:53;;;;;;;0.00;0.00;;;;;;;19.07;100.00;101051.34;4993873;28;20180;-82
2023/08/16 07:51:19;;;;;;;0.00;0.00;;;;;;;18.98;100.00;101048.75;4993821;28;20268;-83
2023/08/16 07:53:44;;;;;;;0.00;0.00;;;;;;;18.97;100.00;101049.91;4991891;28;20185;-82
2023/08/16 07:56:09;;;;;;;2.90;0.97;;;;;;;19.11;100.00;101063.34;4991515;28;20204;-82
2023/08/16 07:58:34;;;;;;;0.00;0.00;;;;;;;19.08;100.00;101064.03;4992043;28;20205;-82
2023/08/16 08:01:00;;;;;;;0.07;0.07;;;;;;;18.92;100.00;101060.44;4993263;28;20204;-82
2023/08/16 08:03:25;;;;;;;0.33;0.33;;;;;;;19.05;100.00;101072.25;4992104;28;20193;-82
2023/08/16 08:05:51;;;;;;;0.00;0.00;;;;;;;19.19;100.00;101079.00;4992935;28;20299;-82
2023/08/16 08:08:16;;;;;;;0.00;0.00;;;;;;;19.32;100.00;101082.50;4991956;28;20195;-82
2023/08/16 08:10:43;;;;;;;0.57;0.57;;;;;;;19.28;100.00;101090.72;4992016;28;20536;-81
2023/08/16 08:13:08;;;;;;;0.00;0.00;;;;;;;19.20;99.26;101083.38;4991406;28;20176;-81
2023/08/16 08:15:34;;;;;;;0.00;0.00;;;;;;;19.27;96.64;101080.81;4992315;28;20236;-82
2023/08/16 08:17:59;;;;;;;0.00;0.00;;;;;;;19.34;93.54;101074.66;4991917;28;20228;-81
2023/08/16 08:20:25;;;;;;;0.00;0.00;;;;;;;19.49;92.10;101076.63;4993018;28;20191;-82
2023/08/16 08:22:53;;;;;;;0.10;0.10;;;;;;;19.43;91.85;101069.75;4992829;28;20181;-81
2023/08/16 08:25:18;;;;;;;0.57;0.57;;;;;;;19.55;91.15;101083.56;4991952;28;20212;-82
2023/08/16 08:27:43;;;;;;;0.10;0.10;;;;;;;19.73;91.51;101084.00;4992920;28;20173;-81
2023/08/16 08:30:09;;;;;;;0.03;0.03;;;;;;;19.76;91.71;101082.50;4991178;28;20197;-81
2023/08/16 08:32:35;;;;;;;0.00;0.00;;;;;;;19.82;91.68;101073.56;4991356;28;20653;-81
2023/08/16 08:35:02;;;;;;;0.00;0.00;;;;;;;19.77;91.21;101073.00;4992146;28;20247;-81
2023/08/16 08:37:28;;;;;;;0.30;0.30;;;;;;;19.71;89.82;101077.22;4993423;28;20188;-81
2023/08/16 08:39:53;;;;;;;0.30;0.30;;;;;;;19.92;90.07;101091.59;4993239;28;20181;-81
2023/08/16 08:42:20;;;;;;;0.77;0.77;;;;;;;19.91;88.31;101074.16;5000706;28;20560;-84
2023/08/16 08:44:45;;;;;;;0.00;0.00;;;;;;;20.10;88.87;101084.50;4992087;28;20739;-83
2023/08/16 08:47:11;;;;;;;0.00;0.00;;;;;;;20.27;88.63;101091.66;4991214;28;20230;-85
2023/08/16 08:49:39;;;;;;;0.47;0.37;;;;;;;20.03;87.13;101081.59;4991306;28;20271;-85
2023/08/16 08:52:05;;;;;;;0.33;0.33;;;;;;;19.93;86.08;101079.34;4998800;28;20176;-82
2023/08/16 08:54:31;;;;;;;0.00;0.00;;;;;;;20.13;87.40;101091.34;4992056;28;20252;-81
2023/08/16 08:56:59;;;;;;;0.07;0.07;;;;;;;20.21;87.16;101099.44;4990586;28;20664;-83
2023/08/16 08:59:26;;;;;;;0.00;0.00;;;;;;;20.46;86.39;101096.47;4990884;28;20212;-80
2023/08/16 09:01:52;;;;;;;0.10;0.10;;;;;;;20.42;84.65;101092.81;4992518;28;20189;-83
2023/08/16 09:04:18;;;;;;;0.00;0.00;;;;;;;20.43;86.24;101094.44;4991989;28;20263;-82
2023/08/16 09:06:44;;;;;;;0.07;0.07;;;;;;;20.41;86.25;101083.69;4991989;28;20200;-84
2023/08/16 09:09:11;;;;;;;0.20;0.20;;;;;;;20.45;85.33;101083.78;4992697;28;20248;-81
2023/08/16 09:11:36;;;;;;;0.13;0.13;;;;;;;20.48;85.39;101080.25;4990411;28;20173;-83
2023/08/16 09:14:03;;;;;;;0.10;0.10;;;;;;;20.52;86.80;101088.66;5007282;28;20201;-83
2023/08/16 09:16:29;;;;;;;0.00;0.00;;;;;;;20.62;84.82;101083.34;5006414;28;20185;-82
2023/08/16 09:18:55;;;;;;;4.57;0.37;;;;;;;20.70;83.33;101076.00;4992473;28;20208;-84
2023/08/16 09:21:24;;;;;;;0.23;0.20;;;;;;;20.38;81.64;101058.59;4992153;28;20177;-84
2023/08/16 09:23:57;;;;;;;0.53;0.53;;;;;;;20.51;83.06;101068.44;4991801;28;20196;-82
2023/08/16 09:26:22;;;;;;;0.00;0.00;;;;;;;20.38;83.90;101067.72;4991929;28;20196;-82
2023/08/16 09:28:56;;;;;;;0.00;0.00;;;;;;;20.62;83.16;101077.78;4992181;28;20177;-87
2023/08/16 09:31:21;;;;;;;0.00;0.00;;;;;;;20.67;84.29;101066.38;4990661;28;20196;-85
2023/08/16 09:33:46;;;;;;;0.10;0.03;;;;;;;20.76;83.31;101064.22;4996999;28;20188;-87
2023/08/16 09:36:12;;;;;;;0.97;0.97;;;;;;;20.93;85.32;101071.28;5009640;28;20696;-84
2023/08/16 09:38:41;;;;;;;0.33;0.33;;;;;;;20.91;84.60;101070.06;4991581;28;20200;-85
2023/08/16 09:41:14;;;;;;;0.83;0.50;;;;;;;21.11;84.51;101068.84;4991868;28;20608;-84
2023/08/16 09:43:39;;;;;;;0.00;0.00;;;;;;;21.09;85.24;101063.66;4990474;28;20193;-86
2023/08/16 09:46:05;;;;;;;0.00;0.00;;;;;;;21.31;85.30;101075.25;4990037;28;20212;-83
2023/08/16 09:48:31;;;;;;;0.43;0.40;;;;;;;21.18;84.90;101055.13;4991968;28;20185;-82
2023/08/16 09:51:01;;;;;;;0.00;0.00;;;;;;;21.30;84.46;101062.50;4993754;28;20705;-82
2023/08/16 09:53:27;;;;;;;1.80;1.20;;;;;;;21.33;85.30;101061.78;4992504;28;20196;-82
2023/08/16 09:55:55;;;;;;;0.10;0.10;;;;;;;21.35;84.88;101049.09;4985373;28;20202;-82
2023/08/16 09:58:21;;;;;;;0.00;0.00;;;;;;;21.41;85.08;101048.78;4993158;28;20206;-82
2023/08/16 10:00:48;;;;;;;0.03;0.03;;;;;;;21.43;84.00;101052.03;4993879;28;20200;-82
2023/08/16 10:03:15;;;;;;;1.13;1.03;;;;;;;21.48;84.90;101051.72;5007313;28;20184;-82
2023/08/16 10:05:40;;;;;;;0.10;0.10;;;;;;;21.57;83.52;101049.50;4990966;28;20205;-81
2023/08/16 10:08:09;;;;;;;1.03;1.03;;;;;;;21.53;82.88;101049.41;4993130;28;20178;-82
2023/08/16 10:10:35;;;;;;;0.00;0.00;;;;;;;21.55;82.90;101046.25;4995778;28;20183;-82
2023/08/16 10:13:01;;;;;;;0.57;0.57;;;;;;;21.50;84.50;101057.69;4992933;28;20282;-82
2023/08/16 10:15:31;;;;;;;0.40;0.40;;;;;;;21.55;83.67;101047.06;4996430;28;20199;-82
2023/08/16 10:17:59;;;;;;;0.20;0.20;;;;;;;21.57;84.07;101049.50;4997023;28;20679;-83
2023/08/16 10:20:26;;;;;;;0.77;0.77;;;;;;;21.76;85.48;101057.75;4997939;28;20274;-81
2023/08/16 10:23:00;;;;;;;0.33;0.33;;;;;;;21.96;85.05;101059.25;4997416;28;20190;-82
2023/08/16 10:25:38;;;;;;;4.43;0.73;;;;;;;21.97;84.21;101046.94;4994762;28;20219;-82
2023/08/16 10:28:07;;;;;;;0.13;0.13;;;;;;;22.17;84.12;101053.25;4996336;28;20178;-81
2023/08/16 10:30:35;;;;;;;0.33;0.33;;;;;;;22.34;82.85;101045.53;4995678;28;20915;-82
2023/08/16 10:33:21;;;;;;;0.03;0.00;;;;;;;22.51;82.28;101042.97;4996525;28;20184;-82
2023/08/16 10:35:50;;;;;;;0.10;0.10;;;;;;;22.70;81.81;101039.22;4995815;28;20210;-82
2023/08/16 10:38:16;;;;;;;0.20;0.20;;;;;;;22.62;82.31;101034.78;4995525;28;20202;-82
2023/08/16 10:40:42;;;;;;;0.30;0.30;;;;;;;22.72;81.58;101036.09;4995143;28;20588;-82
2023/08/16 10:43:08;;;;;;;0.00;0.00;;;;;;;22.53;81.99;101034.25;4996470;28;20179;-83
2023/08/16 10:45:34;;;;;;;0.10;0.10;;;;;;;22.53;81.48;101034.25;4994014;28;20296;-82
2023/08/16 10:48:10;;;;;;;0.10;0.10;;;;;;;22.59;82.88;101037.53;4995615;28;20181;-82
2023/08/16 10:50:36;;;;;;;0.30;0.30;;;;;;;22.47;81.79;101022.66;4993666;28;20219;-83
2023/08/16 10:53:02;;;;;;;0.10;0.10;;;;;;;22.60;82.41;101034.34;4995440;28;20267;-83
2023/08/16 10:55:27;;;;;;;0.17;0.10;;;;;;;22.72;81.73;101033.31;4996669;28;20570;-82
2023/08/16 10:57:54;;;;;;;0.27;0.27;;;;;;;22.84;80.67;101022.72;4996472;28;20283;-82
2023/08/16 11:00:19;;;;;;;1.90;0.40;;;;;;;22.94;79.83;101028.81;4996110;28;20276;-82
2023/08/16 11:02:48;;;;;;;0.00;0.00;;;;;;;23.23;81.01;101036.28;4993729;28;20201;-83
2023/08/16 11:05:19;;;;;;;0.00;0.00;;;;;;;23.13;80.66;101037.75;4992810;28;20203;-82
2023/08/16 11:07:45;;;;;;;0.00;0.00;;;;;;;23.38;79.92;101040.81;4994008;28;20188;-82
2023/08/16 11:10:10;;;;;;;0.40;0.40;;;;;;;23.34;79.47;101036.38;4995209;28;20262;-82
2023/08/16 11:12:36;;;;;;;0.00;0.00;;;;;;;23.42;78.42;101036.06;4993954;28;20595;-82
2023/08/16 11:15:02;;;;;;;0.10;0.00;;;;;;;23.41;77.90;101037.25;4993591;28;20205;-82